Time;durP1;ratioP1;P1;durP2;ratioP2;P2;SDS_P1;SDS_P2;PMS_P1;PMS_P2;Temp;Humidity;BMP_temperature;BMP_pressure;BME280_temperature;BME280_humidity;BME280_pressure;Samples;Min_cycle;Max_cycle;Signal;HPM_P1;HPM_P2
2020/12/09 00:01:20;;;;;;;3.90;3.13;;;4.40;83.20;;;;;;5051475;28;20017;-86
2020/12/09 00:03:46;;;;;;;3.72;3.08;;;4.30;83.20;;;;;;5069851;28;20063;-86
2020/12/09 00:06:11;;;;;;;4.75;3.10;;;4.30;83.20;;;;;;5069331;28;20021;-86
2020/12/09 00:08:37;;;;;;;4.07;3.13;;;4.30;83.80;;;;;;5069623;28;20035;-86
2020/12/09 00:11:03;;;;;;;3.85;3.00;;;4.30;83.20;;;;;;5051554;28;20051;-86
2020/12/09 00:13:29;;;;;;;4.68;3.60;;;4.20;83.30;;;;;;5065610;28;20021;-86
2020/12/09 00:15:54;;;;;;;5.57;3.70;;;4.20;83.30;;;;;;5050694;28;20166;-85
2020/12/09 00:18:20;;;;;;;4.63;3.63;;;4.20;83.20;;;;;;5073272;28;20044;-86
2020/12/09 00:20:46;;;;;;;5.38;4.03;;;4.20;83.10;;;;;;5073991;28;20024;-85
2020/12/09 00:23:11;;;;;;;4.30;3.25;;;4.20;83.00;;;;;;5073248;28;20048;-86
2020/12/09 00:25:37;;;;;;;5.50;3.75;;;4.20;83.00;;;;;;5059035;28;20029;-86
2020/12/09 00:28:03;;;;;;;4.40;3.42;;;4.20;83.10;;;;;;5077379;28;20043;-86
2020/12/09 00:30:28;;;;;;;4.78;3.65;;;4.20;83.10;;;;;;5080830;28;20116;-86
2020/12/09 00:32:54;;;;;;;4.50;3.42;;;4.20;83.10;;;;;;5074170;28;20036;-86
2020/12/09 00:35:19;;;;;;;4.75;3.72;;;4.20;83.10;;;;;;5051051;28;20078;-86
2020/12/09 00:37:45;;;;;;;5.13;3.97;;;4.20;83.10;;;;;;5064619;28;20423;-86
2020/12/09 00:40:11;;;;;;;5.28;3.85;;;4.20;83.10;;;;;;5054441;28;20023;-86
2020/12/09 00:42:36;;;;;;;6.20;4.00;;;4.20;83.10;;;;;;5074070;28;20027;-86
2020/12/09 00:45:04;;;;;;;4.60;3.63;;;4.20;83.00;;;;;;5073300;28;20013;-86
2020/12/09 00:47:29;;;;;;;5.15;3.88;;;4.20;83.00;;;;;;5049027;28;20123;-85
2020/12/09 00:50:03;;;;;;;5.28;3.80;;;4.10;83.10;;;;;;5053650;28;20088;-86
2020/12/09 00:52:30;;;;;;;5.78;4.30;;;4.00;83.20;;;;;;5073598;28;20373;-86
2020/12/09 00:54:55;;;;;;;6.35;4.05;;;4.00;83.90;;;;;;5072135;28;20036;-85
2020/12/09 00:57:24;;;;;;;6.50;4.28;;;4.10;83.20;;;;;;5072671;28;20027;-86
2020/12/09 00:59:50;;;;;;;5.53;3.97;;;4.10;83.20;;;;;;5073737;28;20024;-86
2020/12/09 01:02:15;;;;;;;6.93;4.75;;;4.10;83.20;;;;;;5074958;28;20028;-85
2020/12/09 01:04:41;;;;;;;7.43;4.93;;;4.10;83.10;;;;;;5074437;28;20025;-85
2020/12/09 01:07:09;;;;;;;6.97;4.75;;;4.10;83.60;;;;;;5073537;28;20037;-85
2020/12/09 01:09:34;;;;;;;7.55;4.75;;;4.10;83.00;;;;;;5073383;28;20145;-85
2020/12/09 01:12:01;;;;;;;7.97;5.30;;;4.10;82.90;;;;;;5072201;28;20127;-86
2020/12/09 01:14:27;;;;;;;7.57;5.47;;;4.00;83.00;;;;;;5056956;28;20154;-86
2020/12/09 01:16:53;;;;;;;7.45;5.20;;;4.00;83.10;;;;;;5085395;28;20045;-85
2020/12/09 01:19:18;;;;;;;7.32;5.20;;;3.90;83.10;;;;;;5097376;28;20028;-85
2020/12/09 01:21:44;;;;;;;8.40;5.40;;;3.90;83.20;;;;;;5098303;28;20033;-85
2020/12/09 01:24:09;;;;;;;8.15;6.10;;;4.00;83.20;;;;;;5074192;28;20059;-84
2020/12/09 01:26:35;;;;;;;8.32;5.65;;;4.00;83.10;;;;;;5073625;28;20036;-85
2020/12/09 01:29:00;;;;;;;10.02;6.10;;;4.00;83.00;;;;;;5094307;28;20019;-86
2020/12/09 01:31:26;;;;;;;8.40;5.63;;;3.90;82.90;;;;;;5097742;28;20040;-85
2020/12/09 01:33:52;;;;;;;10.23;5.93;;;3.90;83.20;;;;;;5081093;28;20043;-85
2020/12/09 01:36:24;;;;;;;8.23;5.70;;;3.90;83.20;;;;;;5074449;28;20017;-86
2020/12/09 01:38:50;;;;;;;;;;;3.90;83.10;;;;;;5074017;28;20068;-85
2020/12/09 01:41:20;;;;;;;8.38;5.60;;;3.90;83.00;;;;;;5055774;28;20293;-86
2020/12/09 01:43:47;;;;;;;9.23;6.38;;;3.90;83.10;;;;;;5073605;28;20047;-86
2020/12/09 01:46:18;;;;;;;9.25;5.95;;;3.90;83.00;;;;;;5059254;28;20383;-84
2020/12/09 01:48:45;;;;;;;9.73;6.10;;;4.00;83.00;;;;;;5064701;28;20044;-85
2020/12/09 01:51:15;;;;;;;9.40;6.57;;;3.90;82.80;;;;;;5072518;28;20055;-85
2020/12/09 01:53:41;;;;;;;10.05;6.53;;;3.90;83.00;;;;;;5073228;28;20028;-85
2020/12/09 01:56:07;;;;;;;9.45;6.22;;;3.90;82.90;;;;;;5054744;28;20040;-85
2020/12/09 01:58:32;;;;;;;9.88;6.53;;;3.90;82.90;;;;;;5071982;28;20492;-84
2020/12/09 02:00:58;;;;;;;8.57;6.07;;;3.90;82.90;;;;;;5071485;28;20485;-85
2020/12/09 02:03:25;;;;;;;10.27;6.30;;;3.90;83.00;;;;;;5071125;28;20455;-84
2020/12/09 02:05:50;;;;;;;10.15;6.78;;;3.90;83.10;;;;;;5053147;28;20054;-85
2020/12/09 02:08:16;;;;;;;9.68;6.22;;;3.90;83.10;;;;;;5071114;28;20497;-84
2020/12/09 02:10:42;;;;;;;10.23;6.03;;;3.90;83.00;;;;;;5071076;28;20541;-85
2020/12/09 02:13:07;;;;;;;10.10;6.25;;;3.90;82.90;;;;;;5053178;28;20020;-84
2020/12/09 02:15:33;;;;;;;8.60;5.78;;;3.90;82.90;;;;;;5071338;28;20428;-85
2020/12/09 02:17:58;;;;;;;10.77;6.70;;;3.90;82.90;;;;;;5070195;28;20033;-85
2020/12/09 02:20:24;;;;;;;9.60;6.72;;;3.90;82.90;;;;;;5070688;28;20048;-85
2020/12/09 02:22:54;;;;;;;9.50;6.03;;;3.90;82.80;;;;;;5071486;28;20105;-85
2020/12/09 02:25:21;;;;;;;8.63;5.75;;;3.90;82.80;;;;;;5069899;28;20077;-85
2020/12/09 02:27:46;;;;;;;9.27;6.10;;;3.90;82.80;;;;;;5068712;28;20032;-86
2020/12/09 02:30:12;;;;;;;11.60;6.22;;;3.90;82.70;;;;;;5070483;28;20028;-85
2020/12/09 02:32:38;;;;;;;10.43;6.80;;;3.80;82.70;;;;;;5072007;28;20028;-85
2020/12/09 02:35:04;;;;;;;8.98;6.07;;;3.90;82.70;;;;;;5070151;28;20021;-86
2020/12/09 02:37:33;;;;;;;10.32;6.28;;;3.80;82.70;;;;;;5070170;28;20028;-85
2020/12/09 02:39:58;;;;;;;8.43;5.78;;;3.80;82.70;;;;;;5070020;28;20034;-85
2020/12/09 02:42:24;;;;;;;9.35;6.25;;;3.80;82.70;;;;;;5070973;28;20032;-85
2020/12/09 02:44:49;;;;;;;8.27;5.80;;;3.70;83.20;;;;;;5066793;28;20043;-85
2020/12/09 02:47:15;;;;;;;9.43;5.97;;;3.70;82.80;;;;;;5051880;28;20051;-84
2020/12/09 02:49:41;;;;;;;9.15;6.05;;;3.60;82.90;;;;;;5050345;28;20465;-85
2020/12/09 02:52:06;;;;;;;9.10;6.00;;;3.60;83.10;;;;;;5051808;28;20079;-85
2020/12/09 02:54:32;;;;;;;8.75;6.43;;;3.60;83.10;;;;;;5067505;28;20024;-85
2020/12/09 02:56:58;;;;;;;8.13;5.55;;;3.60;83.00;;;;;;5070997;28;20025;-86
2020/12/09 02:59:23;;;;;;;9.60;6.22;;;3.70;82.90;;;;;;5070134;28;20478;-86
2020/12/09 03:01:49;;;;;;;9.13;5.88;;;3.60;82.70;;;;;;5071785;28;20028;-87
2020/12/09 03:04:14;;;;;;;9.48;6.20;;;3.60;82.70;;;;;;5054160;28;20131;-87
2020/12/09 03:06:41;;;;;;;8.07;5.38;;;3.60;82.60;;;;;;5061044;28;20054;-87
2020/12/09 03:09:07;;;;;;;11.18;6.90;;;3.60;82.70;;;;;;5053767;28;20059;-85
2020/12/09 03:11:33;;;;;;;9.00;6.57;;;3.60;82.80;;;;;;5072655;28;20481;-85
2020/12/09 03:13:58;;;;;;;10.27;6.45;;;3.70;82.90;;;;;;5071052;28;20062;-85
2020/12/09 03:16:24;;;;;;;12.05;7.18;;;3.70;83.50;;;;;;5069144;28;20024;-85
2020/12/09 03:18:50;;;;;;;10.63;6.15;;;3.80;83.00;;;;;;5066469;28;20055;-85
2020/12/09 03:21:16;;;;;;;12.98;6.63;;;3.80;83.00;;;;;;5072770;28;20351;-83
2020/12/09 03:23:41;;;;;;;9.07;5.85;;;3.90;83.00;;;;;;5074672;28;20029;-84
2020/12/09 03:26:07;;;;;;;11.68;6.22;;;3.90;83.00;;;;;;5057609;28;20454;-82
2020/12/09 03:28:35;;;;;;;17.75;6.30;;;4.00;83.00;;;;;;5070535;28;20016;-84
2020/12/09 03:31:04;;;;;;;14.18;6.03;;;4.00;83.00;;;;;;5096406;28;20020;-84
2020/12/09 03:33:30;;;;;;;29.50;7.70;;;4.10;83.10;;;;;;5095882;28;20424;-84
2020/12/09 03:35:55;;;;;;;33.88;7.40;;;4.10;83.10;;;;;;5094726;28;20024;-84
2020/12/09 03:38:22;;;;;;;19.55;6.88;;;4.20;83.10;;;;;;5073537;28;20017;-85
2020/12/09 03:40:48;;;;;;;12.98;5.88;;;4.20;83.00;;;;;;5072937;28;20040;-84
2020/12/09 03:43:15;;;;;;;19.52;6.45;;;4.30;83.10;;;;;;5072126;28;20044;-83
2020/12/09 03:45:41;;;;;;;14.32;5.72;;;4.30;83.00;;;;;;5079736;28;20033;-84
2020/12/09 03:48:07;;;;;;;15.73;6.65;;;4.30;83.00;;;;;;5090263;28;20024;-84
2020/12/09 03:50:32;;;;;;;19.85;6.32;;;4.30;83.00;;;;;;5093919;28;20034;-83
2020/12/09 03:52:58;;;;;;;13.02;6.22;;;4.40;83.00;;;;;;5075101;28;20039;-83
2020/12/09 03:55:24;;;;;;;7.40;4.53;;;4.40;83.10;;;;;;5069995;28;20020;-84
2020/12/09 03:57:50;;;;;;;21.80;6.53;;;4.40;83.10;;;;;;5063955;28;20028;-84
2020/12/09 04:00:16;;;;;;;18.67;6.57;;;4.40;83.00;;;;;;5050589;28;20500;-84
2020/12/09 04:02:42;;;;;;;15.80;6.28;;;4.40;83.10;;;;;;5070360;28;20377;-84
2020/12/09 04:05:07;;;;;;;16.40;6.47;;;4.40;83.10;;;;;;5071153;28;20025;-84
2020/12/09 04:07:33;;;;;;;17.48;6.38;;;4.50;83.20;;;;;;5070209;28;20028;-85
2020/12/09 04:09:58;;;;;;;21.00;7.05;;;4.50;83.20;;;;;;5071088;28;20068;-84
2020/12/09 04:12:24;;;;;;;20.02;6.95;;;4.50;83.20;;;;;;5069271;28;20043;-84
2020/12/09 04:14:50;;;;;;;13.57;6.93;;;4.50;83.10;;;;;;5062721;28;20486;-84
2020/12/09 04:17:16;;;;;;;21.95;6.07;;;4.50;83.10;;;;;;5040270;28;20146;-84
2020/12/09 04:19:42;;;;;;;13.80;5.70;;;4.50;83.10;;;;;;5069342;28;20120;-84
2020/12/09 04:22:07;;;;;;;14.15;5.35;;;4.50;83.20;;;;;;5052653;28;20143;-85
2020/12/09 04:24:33;;;;;;;10.35;5.68;;;4.50;83.20;;;;;;5069573;28;20043;-85
2020/12/09 04:26:58;;;;;;;15.60;6.57;;;4.60;83.20;;;;;;5069665;28;20028;-85
2020/12/09 04:29:24;;;;;;;19.17;7.78;;;4.60;83.20;;;;;;5068663;28;20033;-86
2020/12/09 04:31:49;;;;;;;20.15;7.35;;;4.60;83.20;;;;;;5070050;28;20107;-86
2020/12/09 04:34:19;;;;;;;16.00;6.65;;;4.60;83.20;;;;;;5052289;28;20056;-85
2020/12/09 04:36:45;;;;;;;18.02;6.80;;;4.60;83.20;;;;;;5070329;28;20029;-85
2020/12/09 04:39:10;;;;;;;11.75;6.05;;;4.50;83.20;;;;;;5069320;28;20061;-86
2020/12/09 04:41:36;;;;;;;12.77;6.03;;;4.50;83.40;;;;;;5068490;28;20115;-85
2020/12/09 04:44:02;;;;;;;17.90;7.90;;;4.60;83.50;;;;;;5065493;28;20108;-86
2020/12/09 04:46:30;;;;;;;13.15;6.82;;;4.60;83.40;;;;;;5041136;28;20027;-86
2020/12/09 04:48:57;;;;;;;11.45;6.60;;;4.50;83.30;;;;;;5076958;28;20363;-86
2020/12/09 04:52:01;;;;;;;24.35;7.63;;;4.60;83.30;;;;;;5052148;28;20051;-86
2020/12/09 04:54:46;;;;;;;19.38;7.53;;;4.60;83.40;;;;;;5051749;28;20067;-86
2020/12/09 04:57:39;;;;;;;13.20;6.10;;;4.60;83.30;;;;;;5051690;28;20595;-86
2020/12/09 05:00:07;;;;;;;19.10;7.07;;;4.60;83.30;;;;;;5069948;28;20032;-85
2020/12/09 05:02:36;;;;;;;12.15;6.30;;;4.60;83.20;;;;;;5054830;28;20020;-86
2020/12/09 05:05:01;;;;;;;25.35;7.28;;;4.60;83.40;;;;;;5072878;28;20028;-86
2020/12/09 05:07:31;;;;;;;11.82;6.63;;;4.60;83.50;;;;;;5072513;28;20040;-86
2020/12/09 05:10:01;;;;;;;11.73;5.95;;;4.60;83.50;;;;;;5054624;28;20473;-86
2020/12/09 05:12:47;;;;;;;14.68;7.25;;;4.70;83.50;;;;;;5072731;28;20020;-86
2020/12/09 05:15:19;;;;;;;22.75;9.38;;;4.70;83.40;;;;;;5049276;28;20441;-86
2020/12/09 05:18:09;;;;;;;22.58;9.90;;;4.70;83.40;;;;;;5071945;28;20024;-85
2020/12/09 05:20:37;;;;;;;13.95;7.30;;;4.60;83.50;;;;;;5054114;28;20033;-85
2020/12/09 05:23:04;;;;;;;23.70;7.93;;;4.70;83.50;;;;;;5073378;28;20024;-85
2020/12/09 05:25:32;;;;;;;18.63;7.97;;;4.70;83.40;;;;;;5071870;28;20021;-85
2020/12/09 05:27:58;;;;;;;25.05;9.48;;;4.70;83.20;;;;;;5071533;28;20044;-84
2020/12/09 05:30:51;;;;;;;102.90;16.95;;;4.70;83.30;;;;;;5070738;28;20058;-84
2020/12/09 05:33:19;;;;;;;14.85;7.32;;;4.60;83.40;;;;;;5071219;28;20031;-85
2020/12/09 05:35:55;;;;;;;22.75;8.88;;;4.60;83.50;;;;;;5054059;28;20017;-85
2020/12/09 05:38:21;;;;;;;15.07;8.43;;;4.70;83.60;;;;;;5071656;28;20029;-85
2020/12/09 05:40:47;;;;;;;31.40;12.82;;;4.60;83.60;;;;;;5072989;28;20091;-86
2020/12/09 05:43:14;;;;;;;19.02;10.27;;;4.60;83.60;;;;;;5074678;28;20056;-84
2020/12/09 05:45:41;;;;;;;24.67;9.30;;;4.60;83.60;;;;;;5051088;28;20024;-85
2020/12/09 05:48:22;;;;;;;21.90;11.05;;;4.70;83.70;;;;;;5064492;28;20068;-85
2020/12/09 05:50:56;;;;;;;15.10;8.75;;;4.60;83.70;;;;;;5071847;28;20024;-85
2020/12/09 05:53:27;;;;;;;15.10;9.13;;;4.60;83.60;;;;;;5070965;28;20033;-86
2020/12/09 05:56:09;;;;;;;19.55;11.25;;;4.70;83.80;;;;;;5056683;28;20028;-86
2020/12/09 05:58:34;;;;;;;21.63;12.88;;;4.70;83.70;;;;;;5093434;28;20001;-86
2020/12/09 06:01:19;;;;;;;23.02;13.70;;;4.60;83.70;;;;;;5086932;28;20038;-86
2020/12/09 06:03:48;;;;;;;14.73;9.05;;;4.60;83.70;;;;;;5056722;28;20039;-86
2020/12/09 06:06:25;;;;;;;20.00;11.80;;;4.50;83.70;;;;;;5045917;28;20021;-85
2020/12/09 06:08:55;;;;;;;20.00;11.32;;;4.50;83.80;;;;;;5084943;28;20035;-87
2020/12/09 06:11:27;;;;;;;19.58;11.05;;;4.50;83.80;;;;;;5085894;28;20023;-86
2020/12/09 06:13:53;;;;;;;17.90;10.20;;;4.50;83.80;;;;;;5071750;28;20059;-86
2020/12/09 06:16:20;;;;;;;18.38;10.55;;;4.60;83.90;;;;;;5064237;28;20080;-88
2020/12/09 06:18:50;;;;;;;25.90;15.57;;;4.60;83.80;;;;;;5066427;28;20633;-87
2020/12/09 06:21:16;;;;;;;31.08;18.83;;;4.60;84.40;;;;;;5064436;28;20124;-88
2020/12/09 06:23:43;;;;;;;27.00;15.32;;;4.60;83.70;;;;;;5068980;28;20115;-88
2020/12/09 06:26:09;;;;;;;20.80;12.35;;;4.50;83.70;;;;;;5046453;28;20033;-91
2020/12/09 06:28:42;;;;;;;21.02;12.18;;;4.50;83.80;;;;;;5064757;28;20429;-92
2020/12/09 06:31:16;;;;;;;33.08;20.48;;;4.50;83.80;;;;;;5057704;28;20264;-93
2020/12/09 06:33:47;;;;;;;24.25;14.27;;;4.40;83.80;;;;;;5056962;28;20025;-94
2020/12/09 06:36:19;;;;;;;26.77;15.48;;;4.30;83.80;;;;;;5064144;28;20389;-89
2020/12/09 06:39:04;;;;;;;20.80;12.48;;;4.30;84.00;;;;;;5073315;28;20039;-88
2020/12/09 06:41:29;;;;;;;18.33;11.05;;;4.30;84.10;;;;;;5072674;28;20029;-90
2020/12/09 06:44:09;;;;;;;16.10;9.32;;;4.30;84.00;;;;;;5061918;28;20028;-90
2020/12/09 06:47:01;;;;;;;18.10;11.05;;;4.30;84.10;;;;;;5056397;28;20019;-89
2020/12/09 06:49:29;;;;;;;29.42;16.80;;;4.30;84.20;;;;;;5068481;28;20044;-92
2020/12/09 06:51:56;;;;;;;28.58;16.63;;;4.30;84.20;;;;;;5072294;28;20052;-90
2020/12/09 06:54:42;;;;;;;23.95;13.35;;;4.30;84.20;;;;;;5054328;28;20114;-90
2020/12/09 06:57:29;;;;;;;37.00;20.95;;;4.30;84.30;;;;;;5068336;28;20016;-90
2020/12/09 07:00:10;;;;;;;34.85;20.40;;;4.20;84.30;;;;;;5078523;28;20424;-90
2020/12/09 07:02:36;;;;;;;40.38;23.00;;;4.20;84.40;;;;;;5055955;28;20123;-90
2020/12/09 07:05:02;;;;;;;37.92;21.73;;;4.10;84.50;;;;;;5054931;28;20078;-90
2020/12/09 07:07:29;;;;;;;35.40;19.40;;;4.00;84.60;;;;;;5067346;28;20083;-90
2020/12/09 07:09:55;;;;;;;26.13;13.95;;;4.00;84.80;;;;;;5059761;28;20115;-89
2020/12/09 07:12:22;;;;;;;22.13;12.27;;;4.10;84.80;;;;;;5052334;28;20052;-90
2020/12/09 07:14:48;;;;;;;30.13;16.20;;;4.10;84.70;;;;;;5070092;28;20236;-91
2020/12/09 07:17:16;;;;;;;29.23;15.85;;;4.10;84.60;;;;;;5067124;28;20024;-91
2020/12/09 07:19:41;;;;;;;25.85;13.32;;;4.20;84.70;;;;;;5049042;28;20013;-92
2020/12/09 07:22:07;;;;;;;22.98;12.43;;;4.20;84.70;;;;;;5063206;28;21357;-91
2020/12/09 07:24:32;;;;;;;26.02;13.77;;;4.20;84.60;;;;;;5047009;28;20039;-91
2020/12/09 07:26:58;;;;;;;27.00;14.20;;;4.20;84.60;;;;;;5068425;28;20036;-91
2020/12/09 07:29:24;;;;;;;57.85;25.30;;;4.30;84.60;;;;;;5063304;28;20448;-90
2020/12/09 07:31:49;;;;;;;42.40;20.25;;;4.20;84.50;;;;;;5072601;28;20029;-90
2020/12/09 07:34:15;;;;;;;27.80;14.73;;;4.10;84.60;;;;;;5060565;28;20421;-91
2020/12/09 07:36:50;;;;;;;19.00;10.63;;;4.10;84.80;;;;;;5065635;28;20056;-90
2020/12/09 07:39:32;;;;;;;21.77;11.70;;;4.10;85.40;;;;;;5040454;28;20049;-90
2020/12/09 07:41:59;;;;;;;20.63;9.85;;;4.20;84.90;;;;;;5034692;28;20039;-90
2020/12/09 07:44:26;;;;;;;38.22;14.45;;;4.20;84.80;;;;;;5069698;28;20028;-91
2020/12/09 07:46:56;;;;;;;37.03;15.65;;;4.20;84.70;;;;;;5055434;28;20017;-90
2020/12/09 07:49:23;;;;;;;21.48;11.00;;;4.30;84.80;;;;;;5078331;28;20052;-90
2020/12/09 07:51:51;;;;;;;64.03;17.85;;;4.20;84.80;;;;;;5071340;28;20009;-91
2020/12/09 07:54:18;;;;;;;26.70;11.77;;;4.20;84.80;;;;;;5055853;28;20032;-90
2020/12/09 07:56:43;;;;;;;123.80;22.20;;;4.20;84.90;;;;;;5072893;28;20025;-90
2020/12/09 07:59:11;;;;;;;109.60;16.45;;;4.10;84.90;;;;;;5070867;28;20045;-92
2020/12/09 08:01:37;;;;;;;198.07;24.38;;;4.10;85.10;;;;;;5053700;28;20058;-88
2020/12/09 08:04:04;;;;;;;245.85;27.95;;;4.00;85.20;;;;;;5079539;28;20446;-88
2020/12/09 08:06:29;;;;;;;83.63;16.90;;;3.90;85.40;;;;;;5076377;28;20071;-86
2020/12/09 08:08:55;;;;;;;117.40;16.70;;;3.80;85.50;;;;;;5056086;28;20078;-88
2020/12/09 08:11:21;;;;;;;25.92;9.43;;;3.80;85.60;;;;;;5055294;28;20355;-88
2020/12/09 08:13:47;;;;;;;20.35;11.45;;;3.70;85.70;;;;;;5065344;28;20056;-88
2020/12/09 08:16:13;;;;;;;50.42;12.10;;;3.60;85.70;;;;;;5063037;28;20075;-88
2020/12/09 08:18:40;;;;;;;102.82;19.15;;;3.60;85.80;;;;;;5035876;28;20051;-88
2020/12/09 08:21:07;;;;;;;28.50;13.20;;;3.60;85.80;;;;;;5048286;28;20032;-89
2020/12/09 08:23:50;;;;;;;75.72;17.63;;;3.50;85.70;;;;;;5043825;28;20046;-87
2020/12/09 08:26:30;;;;;;;35.67;14.02;;;3.40;85.80;;;;;;5045393;28;20549;-88
2020/12/09 08:28:56;;;;;;;30.77;10.70;;;3.30;85.90;;;;;;5059361;28;20244;-86
2020/12/09 08:31:22;;;;;;;27.88;9.63;;;3.30;85.90;;;;;;5065482;28;20046;-88
2020/12/09 08:33:50;;;;;;;8.48;4.80;;;3.30;85.90;;;;;;5065524;28;20052;-87
2020/12/09 08:36:20;;;;;;;17.35;7.43;;;3.20;85.80;;;;;;5050520;28;20032;-87
2020/12/09 08:39:06;;;;;;;17.23;8.40;;;3.30;85.90;;;;;;5038872;28;20086;-88
2020/12/09 08:48:19;;;;;;;28.10;9.95;;;3.20;85.70;;;;;;5070785;28;20059;-89
2020/12/09 08:50:46;;;;;;;18.80;8.35;;;3.10;85.60;;;;;;5052983;28;20035;-88
2020/12/09 08:53:11;;;;;;;17.58;8.20;;;3.10;85.60;;;;;;5069043;28;20028;-88
2020/12/09 08:55:37;;;;;;;22.42;8.45;;;3.10;85.60;;;;;;5070040;28;20027;-90
2020/12/09 08:58:03;;;;;;;33.05;15.88;;;3.20;85.70;;;;;;5067146;28;20032;-89
2020/12/09 09:00:29;;;;;;;17.02;9.10;;;3.10;85.50;;;;;;5051693;28;20079;-89
2020/12/09 09:02:56;;;;;;;18.17;9.35;;;3.00;85.50;;;;;;5069605;28;20032;-88
2020/12/09 09:05:22;;;;;;;78.78;14.55;;;3.10;85.60;;;;;;5069822;28;20020;-89
2020/12/09 09:07:49;;;;;;;148.05;20.40;;;3.10;85.50;;;;;;5049927;28;20040;-90
2020/12/09 09:10:14;;;;;;;32.67;11.38;;;3.00;85.20;;;;;;5069555;28;20016;-89
2020/12/09 09:12:40;;;;;;;126.30;19.55;;;2.90;85.10;;;;;;5069976;28;20478;-90
2020/12/09 09:15:07;;;;;;;16.13;9.55;;;2.90;85.10;;;;;;5068401;28;20032;-87
2020/12/09 09:17:33;;;;;;;44.55;14.48;;;2.80;85.20;;;;;;5050706;28;20046;-87
2020/12/09 09:19:59;;;;;;;78.22;14.65;;;2.80;85.20;;;;;;5067916;28;20103;-87
2020/12/09 09:22:25;;;;;;;137.88;23.25;;;2.80;85.20;;;;;;5069367;28;20036;-86
2020/12/09 09:24:50;;;;;;;31.92;11.45;;;2.80;85.20;;;;;;5071777;28;20549;-88
2020/12/09 09:27:16;;;;;;;21.38;10.65;;;2.70;85.20;;;;;;5051431;28;20041;-87
2020/12/09 09:29:42;;;;;;;36.45;11.43;;;2.70;85.80;;;;;;5066794;28;20033;-85
2020/12/09 09:32:09;;;;;;;21.48;9.75;;;2.70;85.30;;;;;;5059697;28;20111;-87
2020/12/09 09:34:36;;;;;;;24.67;9.15;;;2.70;85.30;;;;;;5064606;28;20033;-87
2020/12/09 09:37:04;;;;;;;50.92;14.27;;;2.80;85.30;;;;;;5039580;28;20032;-87
2020/12/09 09:39:29;;;;;;;124.90;22.05;;;2.90;85.20;;;;;;5056685;28;20053;-85
2020/12/09 09:41:56;;;;;;;53.33;16.88;;;2.90;85.20;;;;;;5057771;28;20064;-88
2020/12/09 09:44:22;;;;;;;21.80;11.20;;;2.70;85.10;;;;;;5042118;28;20021;-87
2020/12/09 09:46:48;;;;;;;147.48;22.45;;;2.80;85.30;;;;;;5058403;28;20036;-87
2020/12/09 09:49:13;;;;;;;106.47;22.48;;;2.90;85.30;;;;;;5055512;28;20040;-87
2020/12/09 09:51:39;;;;;;;49.35;14.13;;;2.70;85.10;;;;;;5065645;28;20021;-88
2020/12/09 09:54:04;;;;;;;22.70;9.82;;;2.70;85.30;;;;;;5060363;28;20099;-88
2020/12/09 09:56:30;;;;;;;18.15;10.50;;;2.70;85.40;;;;;;5057433;28;20009;-89
2020/12/09 09:58:56;;;;;;;12.05;6.57;;;2.70;85.40;;;;;;5057499;28;20584;-89
2020/12/09 10:01:21;;;;;;;25.15;12.85;;;2.70;85.40;;;;;;5058829;28;20021;-88
2020/12/09 10:03:47;;;;;;;26.33;11.00;;;2.70;85.40;;;;;;5040568;28;20517;-88
2020/12/09 10:06:12;;;;;;;81.97;15.98;;;2.80;85.50;;;;;;5058932;28;20158;-88
2020/12/09 10:08:39;;;;;;;18.15;9.55;;;2.80;85.50;;;;;;5058409;28;20040;-88
2020/12/09 10:11:05;;;;;;;141.98;24.05;;;2.80;86.10;;;;;;5058321;28;20017;-90
2020/12/09 10:13:31;;;;;;;62.88;16.45;;;2.70;85.40;;;;;;5059847;28;20115;-90
2020/12/09 10:15:57;;;;;;;30.60;14.82;;;2.70;85.60;;;;;;5035240;28;20170;-88
2020/12/09 10:18:23;;;;;;;40.95;14.13;;;2.60;85.60;;;;;;5061074;28;20032;-89
2020/12/09 10:20:49;;;;;;;17.88;11.50;;;2.60;85.70;;;;;;5068375;28;20016;-89
2020/12/09 10:23:14;;;;;;;16.33;10.35;;;2.60;85.60;;;;;;5061230;28;20162;-91
2020/12/09 10:25:40;;;;;;;22.25;14.43;;;2.60;85.70;;;;;;5042354;28;20021;-91
2020/12/09 10:28:09;;;;;;;24.40;14.45;;;2.40;85.80;;;;;;5043829;28;20041;-90
2020/12/09 10:30:35;;;;;;;34.83;15.98;;;2.40;86.30;;;;;;5035415;28;20817;-90
2020/12/09 10:33:00;;;;;;;44.83;12.32;;;2.30;86.50;;;;;;5053187;28;20029;-90
2020/12/09 10:35:26;;;;;;;88.80;14.77;;;2.30;86.70;;;;;;5054256;28;20024;-90
2020/12/09 10:37:52;;;;;;;90.80;18.08;;;2.40;86.70;;;;;;5073570;28;20020;-89
2020/12/09 10:40:55;;;;;;;136.75;23.13;;;2.40;86.50;;;;;;5074221;28;20028;-89
2020/12/09 10:43:20;;;;;;;30.77;13.68;;;2.40;86.50;;;;;;5075238;28;20024;-90
2020/12/09 10:45:47;;;;;;;65.75;15.60;;;2.40;86.50;;;;;;5040647;28;20390;-89
2020/12/09 10:48:13;;;;;;;101.80;17.38;;;2.40;86.40;;;;;;5058230;28;20041;-89
2020/12/09 10:50:40;;;;;;;96.30;16.20;;;2.50;86.20;;;;;;5080034;28;20020;-90
2020/12/09 10:53:18;;;;;;;22.85;9.20;;;2.60;86.20;;;;;;5084477;28;20036;-89
2020/12/09 10:55:44;;;;;;;70.82;15.30;;;2.60;86.20;;;;;;5088385;28;20112;-89
2020/12/09 10:58:09;;;;;;;65.22;16.30;;;2.70;86.10;;;;;;5092745;28;20019;-88
2020/12/09 11:00:35;;;;;;;25.48;13.10;;;2.60;85.80;;;;;;5077134;28;20020;-88
2020/12/09 11:03:00;;;;;;;16.52;9.20;;;2.60;85.90;;;;;;5091019;28;20066;-89
2020/12/09 11:05:26;;;;;;;16.77;10.63;;;2.60;86.00;;;;;;5071759;28;20041;-89
2020/12/09 11:07:51;;;;;;;15.60;9.48;;;2.60;85.90;;;;;;5069785;28;20068;-88
2020/12/09 11:10:17;;;;;;;27.38;10.77;;;2.60;86.00;;;;;;5065165;28;20032;-90
2020/12/09 11:12:43;;;;;;;22.83;10.95;;;2.70;86.10;;;;;;5054142;28;20417;-90
2020/12/09 11:15:08;;;;;;;210.45;24.33;;;2.70;86.00;;;;;;5082330;28;20080;-88
2020/12/09 11:17:34;;;;;;;164.30;22.02;;;2.70;85.90;;;;;;5084729;28;20037;-88
2020/12/09 11:19:59;;;;;;;16.80;10.20;;;2.60;85.70;;;;;;5068258;28;20044;-88
2020/12/09 11:22:25;;;;;;;52.72;13.90;;;2.60;85.80;;;;;;5068662;28;20055;-89
2020/12/09 11:24:50;;;;;;;33.13;15.60;;;2.50;85.70;;;;;;5047975;28;20056;-88
2020/12/09 11:27:16;;;;;;;27.67;12.77;;;2.50;85.60;;;;;;5068166;28;20029;-88
2020/12/09 11:29:41;;;;;;;85.63;19.60;;;2.40;85.70;;;;;;5055001;28;20449;-87
2020/12/09 11:32:07;;;;;;;25.92;12.30;;;2.30;86.00;;;;;;5063855;28;20506;-87
2020/12/09 11:34:33;;;;;;;19.50;12.13;;;2.30;86.20;;;;;;5052060;28;20367;-88
2020/12/09 11:37:00;;;;;;;75.30;17.27;;;2.20;86.30;;;;;;5079473;28;20025;-87
2020/12/09 11:39:26;;;;;;;28.15;14.77;;;2.20;86.70;;;;;;5084859;28;20020;-88
2020/12/09 11:41:52;;;;;;;37.60;14.98;;;2.00;86.90;;;;;;5092861;28;20044;-87
2020/12/09 11:44:17;;;;;;;37.70;13.38;;;2.00;87.30;;;;;;5072637;28;20421;-88
2020/12/09 11:46:43;;;;;;;18.98;11.07;;;2.00;87.50;;;;;;5073006;28;20048;-88
2020/12/09 11:49:08;;;;;;;44.05;16.08;;;2.10;87.50;;;;;;5067234;28;20045;-88
2020/12/09 11:51:35;;;;;;;26.55;14.55;;;2.10;87.40;;;;;;5059271;28;20021;-88
2020/12/09 11:54:01;;;;;;;70.75;19.75;;;2.10;87.40;;;;;;5058462;28;20035;-88
2020/12/09 11:56:27;;;;;;;22.20;11.75;;;2.00;87.20;;;;;;5075702;28;20146;-88
2020/12/09 11:58:53;;;;;;;27.48;13.40;;;2.00;87.20;;;;;;5079774;28;20012;-89
2020/12/09 12:01:20;;;;;;;25.33;11.57;;;2.00;87.30;;;;;;5080482;28;20024;-89
2020/12/09 12:03:47;;;;;;;23.45;11.48;;;2.00;87.40;;;;;;5092642;28;20017;-90
2020/12/09 12:06:24;;;;;;;34.08;15.20;;;2.00;87.50;;;;;;5077107;28;20036;-89
2020/12/09 12:08:54;;;;;;;45.45;12.80;;;2.10;87.50;;;;;;5077485;28;20009;-90
2020/12/09 12:11:21;;;;;;;33.42;11.70;;;2.10;87.50;;;;;;5082813;28;20004;-89
2020/12/09 12:13:48;;;;;;;26.30;12.70;;;2.10;87.50;;;;;;5097215;28;20037;-87
2020/12/09 12:16:18;;;;;;;21.23;11.95;;;2.10;87.50;;;;;;5097739;28;20009;-88
2020/12/09 12:18:52;;;;;;;23.83;11.65;;;2.10;87.60;;;;;;5100332;28;20032;-87
2020/12/09 12:21:22;;;;;;;27.17;11.07;;;2.10;87.70;;;;;;5090447;28;20047;-89
2020/12/09 12:23:49;;;;;;;35.22;14.27;;;2.20;87.50;;;;;;5053258;28;20070;-88
2020/12/09 12:26:19;;;;;;;20.20;9.70;;;2.20;87.40;;;;;;5070479;28;20384;-88
2020/12/09 12:28:46;;;;;;;28.23;13.60;;;2.30;87.40;;;;;;5091235;28;20044;-87
2020/12/09 12:31:16;;;;;;;22.52;11.25;;;2.30;87.30;;;;;;5092900;28;20058;-89
2020/12/09 12:33:43;;;;;;;30.55;13.90;;;2.30;87.30;;;;;;5077952;28;20013;-88
2020/12/09 12:36:09;;;;;;;31.50;13.32;;;2.40;88.00;;;;;;5078881;28;20013;-89
2020/12/09 12:38:35;;;;;;;24.30;11.50;;;2.40;87.40;;;;;;5094490;28;20213;-89
2020/12/09 12:41:02;;;;;;;49.03;21.77;;;2.30;87.40;;;;;;5069218;28;20043;-90
2020/12/09 12:43:28;;;;;;;25.55;12.20;;;2.30;87.50;;;;;;5083781;28;20114;-87
2020/12/09 12:45:53;;;;;;;35.17;15.75;;;2.30;87.60;;;;;;5068308;28;20040;-87
2020/12/09 12:48:19;;;;;;;28.45;13.35;;;2.30;87.60;;;;;;5079577;28;20528;-88
2020/12/09 12:50:45;;;;;;;34.17;15.68;;;2.30;87.70;;;;;;5077831;28;20070;-88
2020/12/09 12:53:10;;;;;;;27.27;12.57;;;2.30;87.90;;;;;;5074203;28;20078;-91